Time;durP1;ratioP1;P1;durP2;ratioP2;P2;SDS_P1;SDS_P2;PMS_P1;PMS_P2;Temp;Humidity;BMP_temperature;BMP_pressure;BME280_temperature;BME280_humidity;BME280_pressure;Samples;Min_cycle;Max_cycle;Signal;HPM_P1;HPM_P2
2022/03/17 00:00:47;;;;;;;30.47;14.80;;;;;;;1.98;81.61;100733.66;5073760;28;20403;-66
2022/03/17 00:03:16;;;;;;;31.95;14.35;;;;;;;1.86;81.38;100733.03;5073890;28;20499;-65
2022/03/17 00:05:45;;;;;;;26.03;13.37;;;;;;;1.79;81.94;100736.03;5072677;28;20496;-65
2022/03/17 00:08:14;;;;;;;24.95;12.75;;;;;;;1.73;82.04;100735.72;5073528;28;20131;-65
2022/03/17 00:10:43;;;;;;;29.03;13.80;;;;;;;1.93;82.27;100740.09;5073781;28;20046;-66
2022/03/17 00:13:14;;;;;;;21.30;9.82;;;;;;;2.10;81.67;100738.44;5073319;28;20048;-66
2022/03/17 00:15:43;;;;;;;27.80;13.10;;;;;;;2.20;82.40;100745.66;5073492;28;20059;-66
2022/03/17 00:18:12;;;;;;;29.05;13.57;;;;;;;2.15;81.83;100737.88;5073414;28;20131;-66
2022/03/17 00:20:42;;;;;;;24.17;11.50;;;;;;;2.07;81.92;100739.13;5073633;28;20404;-65
2022/03/17 00:23:11;;;;;;;27.35;12.10;;;;;;;2.07;81.75;100734.09;5073644;28;20492;-66
2022/03/17 00:25:40;;;;;;;22.98;11.77;;;;;;;2.13;81.05;100739.47;5072039;28;20060;-66
2022/03/17 00:28:10;;;;;;;27.40;12.75;;;;;;;2.23;81.26;100743.31;5072360;28;20036;-65
2022/03/17 00:30:40;;;;;;;22.13;13.00;;;;;;;2.22;80.73;100734.88;5073322;28;20044;-66
2022/03/17 00:33:10;;;;;;;24.15;11.95;;;;;;;2.21;81.44;100743.22;5073238;28;20079;-66
2022/03/17 00:35:42;;;;;;;22.07;11.77;;;;;;;2.10;80.69;100741.81;5073622;28;20040;-65
2022/03/17 00:38:13;;;;;;;24.60;12.27;;;;;;;2.12;81.08;100732.69;5073288;28;20056;-66
2022/03/17 00:40:44;;;;;;;24.85;11.88;;;;;;;2.22;81.31;100744.94;5073251;28;20048;-66
2022/03/17 00:43:14;;;;;;;24.58;11.52;;;;;;;2.24;80.82;100748.41;5073425;28;20060;-65
2022/03/17 00:45:47;;;;;;;27.25;12.02;;;;;;;2.16;81.05;100739.59;5073196;28;20044;-66
2022/03/17 00:48:16;;;;;;;25.77;12.07;;;;;;;2.26;80.64;100734.22;5073165;28;20076;-66
2022/03/17 00:50:45;;;;;;;24.87;12.00;;;;;;;2.32;81.12;100732.03;5073118;28;20040;-65
2022/03/17 00:53:14;;;;;;;21.70;8.60;;;;;;;2.27;81.08;100732.56;5073049;28;20281;-66
2022/03/17 00:55:43;;;;;;;18.90;10.25;;;;;;;2.29;80.72;100736.91;5073043;28;20048;-66
2022/03/17 00:58:12;;;;;;;22.23;11.68;;;;;;;2.18;80.19;100730.50;5073324;28;20045;-66
2022/03/17 01:00:41;;;;;;;21.73;11.97;;;;;;;2.18;79.79;100738.03;5072945;28;20036;-65
2022/03/17 01:03:12;;;;;;;19.65;10.32;;;;;;;2.06;79.81;100737.44;5076823;28;20044;-66
2022/03/17 01:05:41;;;;;;;23.85;12.00;;;;;;;2.07;79.91;100736.63;5076892;28;20123;-66
2022/03/17 01:08:10;;;;;;;26.25;11.77;;;;;;;2.08;80.40;100742.53;5076810;28;20047;-66
2022/03/17 01:10:42;;;;;;;20.53;10.97;;;;;;;1.93;79.47;100740.09;5077339;28;20400;-65
2022/03/17 01:13:11;;;;;;;21.02;11.00;;;;;;;1.70;80.41;100738.97;5076637;28;20045;-66
2022/03/17 01:15:40;;;;;;;23.73;11.33;;;;;;;1.52;80.34;100744.66;5076650;28;20052;-65
2022/03/17 01:18:11;;;;;;;21.33;11.65;;;;;;;1.51;80.10;100737.94;5076570;28;20048;-65
2022/03/17 01:20:41;;;;;;;21.05;11.43;;;;;;;1.60;80.74;100743.44;5076796;28;20080;-66
2022/03/17 01:23:10;;;;;;;22.80;10.98;;;;;;;1.51;80.27;100750.50;5076491;28;20127;-66
2022/03/17 01:25:39;;;;;;;27.13;11.47;;;;;;;1.33;80.49;100748.75;5076107;28;20052;-66
2022/03/17 01:28:08;;;;;;;25.23;11.55;;;;;;;1.26;80.23;100751.72;5076982;28;20455;-65
2022/03/17 01:30:37;;;;;;;27.57;12.13;;;;;;;1.24;80.84;100753.31;5076391;28;20131;-65
2022/03/17 01:33:06;;;;;;;22.33;10.80;;;;;;;1.15;80.87;100745.25;5076644;28;20098;-66
2022/03/17 01:35:37;;;;;;;23.10;10.68;;;;;;;1.10;81.30;100748.31;5076190;28;20063;-66
2022/03/17 01:38:06;;;;;;;22.83;10.68;;;;;;;1.08;81.08;100745.69;5076248;28;20101;-66
2022/03/17 01:40:35;;;;;;;20.60;9.95;;;;;;;1.07;81.36;100759.06;5076063;28;20047;-65
2022/03/17 01:43:04;;;;;;;22.63;10.90;;;;;;;1.12;81.15;100752.66;5076142;28;20098;-65
2022/03/17 01:45:35;;;;;;;22.90;11.07;;;;;;;1.08;81.25;100749.88;5076314;28;20048;-65
2022/03/17 01:48:04;;;;;;;21.98;10.77;;;;;;;1.01;81.30;100758.72;5076071;28;20376;-66
2022/03/17 01:50:33;;;;;;;24.88;10.95;;;;;;;0.95;81.48;100758.41;5076039;28;20044;-65
2022/03/17 01:53:04;;;;;;;25.20;12.18;;;;;;;0.93;81.46;100762.47;5075980;28;20044;-66
2022/03/17 01:55:33;;;;;;;22.50;12.10;;;;;;;0.87;81.72;100757.09;5074691;28;20040;-66
2022/03/17 01:58:02;;;;;;;22.63;11.77;;;;;;;0.96;81.48;100755.09;5075882;28;20044;-65
2022/03/17 02:00:31;;;;;;;23.80;10.65;;;;;;;0.96;81.57;100755.09;5076047;28;20143;-66
2022/03/17 02:03:00;;;;;;;24.77;11.95;;;;;;;0.86;81.49;100759.53;5075800;28;20049;-65
2022/03/17 02:05:30;;;;;;;24.80;11.65;;;;;;;0.78;81.62;100758.25;5075715;28;20044;-66
2022/03/17 02:07:59;;;;;;;24.73;12.02;;;;;;;0.72;82.01;100763.78;5075987;28;20577;-66
2022/03/17 02:13:08;;;;;;;26.33;12.13;;;;;;;0.67;82.34;100775.25;5075659;28;20048;-65
2022/03/17 02:13:18;;;;;;;26.60;12.35;;;;;;;0.75;82.21;100774.03;5075078;28;20071;-65
2022/03/17 02:15:51;;;;;;;28.23;13.30;;;;;;;0.92;82.39;100780.84;5075999;28;20391;-66
2022/03/17 02:18:21;;;;;;;28.95;13.32;;;;;;;0.92;82.77;100757.34;5075529;28;20045;-66
2022/03/17 02:20:50;;;;;;;;;;;;;;;1.04;82.70;100773.97;5076043;28;20480;-66
2022/03/17 02:26:00;;;;;;;26.38;11.73;;;;;;;1.05;82.29;100785.78;5075208;28;20060;-65
2022/03/17 02:28:31;;;;;;;27.48;13.07;;;;;;;1.03;82.30;100792.34;5075328;28;20075;-66
2022/03/17 02:31:01;;;;;;;25.00;11.13;;;;;;;0.98;82.42;100793.75;5075271;28;20055;-65
2022/03/17 02:33:30;;;;;;;23.25;10.98;;;;;;;0.75;82.28;100763.97;5075243;28;20041;-66
2022/03/17 02:36:00;;;;;;;24.80;11.50;;;;;;;0.89;82.24;100782.34;5075409;28;20388;-66
2022/03/17 02:38:30;;;;;;;20.42;9.65;;;;;;;0.93;81.89;100790.13;5075397;28;20396;-66
2022/03/17 02:40:59;;;;;;;23.13;11.65;;;;;;;1.02;82.67;100795.66;5074995;28;20037;-66
2022/03/17 02:43:28;;;;;;;23.13;11.15;;;;;;;1.08;81.58;100798.47;5074924;28;20051;-66
2022/03/17 02:45:57;;;;;;;23.07;10.80;;;;;;;0.95;81.92;100803.63;5075172;28;20041;-65
2022/03/17 02:48:26;;;;;;;18.50;10.20;;;;;;;0.91;82.12;100806.75;5074849;28;20059;-66
2022/03/17 02:50:55;;;;;;;22.20;10.47;;;;;;;0.72;81.72;100811.53;5074851;28;20056;-66
2022/03/17 02:53:24;;;;;;;21.63;10.20;;;;;;;0.43;81.51;100819.91;5074788;28;20059;-66
2022/03/17 02:55:56;;;;;;;22.77;10.20;;;;;;;0.49;82.11;100829.44;5074999;28;20052;-66
2022/03/17 02:58:25;;;;;;;27.33;11.68;;;;;;;0.63;82.04;100823.56;5074755;28;20048;-65
2022/03/17 03:00:54;;;;;;;22.30;9.82;;;;;;;0.88;82.39;100816.63;5074848;28;20045;-66
2022/03/17 03:03:23;;;;;;;20.27;10.82;;;;;;;0.86;81.98;100813.19;5073762;28;20047;-66
2022/03/17 03:05:54;;;;;;;20.40;10.43;;;;;;;0.93;81.97;100805.19;5074878;28;20433;-66
2022/03/17 03:08:24;;;;;;;22.80;10.07;;;;;;;0.87;82.06;100799.81;5074761;28;20045;-66
2022/03/17 03:10:53;;;;;;;18.83;9.68;;;;;;;0.58;81.27;100800.72;5074514;28;20049;-66
2022/03/17 03:13:23;;;;;;;20.03;10.43;;;;;;;0.45;81.48;100792.41;5074688;28;20063;-66
2022/03/17 03:15:52;;;;;;;18.90;10.00;;;;;;;0.44;81.89;100780.59;5074963;28;20452;-66
2022/03/17 03:18:21;;;;;;;19.77;9.98;;;;;;;0.37;81.85;100786.06;5074157;28;20500;-66
2022/03/17 03:20:50;;;;;;;20.95;10.00;;;;;;;0.38;81.63;100793.69;5074164;28;20040;-66
2022/03/17 03:23:19;;;;;;;21.40;10.00;;;;;;;0.35;82.08;100806.06;5074037;28;20087;-66
2022/03/17 03:25:48;;;;;;;21.27;10.13;;;;;;;0.60;82.24;100800.81;5073816;28;20052;-66
2022/03/17 03:28:17;;;;;;;21.97;10.53;;;;;;;0.62;82.17;100796.72;5073958;28;20040;-66
2022/03/17 03:30:50;;;;;;;21.48;11.10;;;;;;;0.73;82.45;100795.69;5074119;28;20044;-66
2022/03/17 03:33:19;;;;;;;25.83;11.77;;;;;;;0.82;82.13;100788.66;5074028;28;20043;-66
2022/03/17 03:38:27;;;;;;;22.75;10.88;;;;;;;0.70;82.12;100795.50;5073915;28;20356;-66
2022/03/17 03:40:56;;;;;;;20.70;9.43;;;;;;;0.68;81.92;100797.06;5074112;28;20044;-66
2022/03/17 03:43:25;;;;;;;24.10;10.50;;;;;;;0.68;82.03;100797.94;5073885;28;20072;-66
2022/03/17 03:45:55;;;;;;;19.33;9.02;;;;;;;0.63;82.09;100796.81;5073815;28;20048;-66
2022/03/17 03:48:24;;;;;;;17.02;9.23;;;;;;;0.72;81.85;100806.50;5073653;28;20484;-66
2022/03/17 03:50:53;;;;;;;20.63;9.80;;;;;;;0.70;81.74;100800.53;5073748;28;20045;-66
2022/03/17 03:53:22;;;;;;;20.33;9.27;;;;;;;0.64;81.73;100795.16;5074037;28;20075;-66
2022/03/17 03:55:51;;;;;;;15.48;9.82;;;;;;;0.60;82.12;100790.78;5073805;28;20045;-66
2022/03/17 03:58:20;;;;;;;22.40;9.90;;;;;;;0.56;81.98;100796.38;5073960;28;20087;-66
2022/03/17 04:00:49;;;;;;;18.23;9.93;;;;;;;0.65;82.46;100799.41;5073510;28;20070;-66
2022/03/17 04:03:19;;;;;;;17.50;9.00;;;;;;;0.76;82.00;100795.84;5073575;28;20058;-66
2022/03/17 04:05:48;;;;;;;23.50;10.23;;;;;;;0.68;81.92;100808.00;5074211;28;20492;-66
2022/03/17 04:08:17;;;;;;;18.70;9.93;;;;;;;0.63;81.92;100808.50;5073520;28;20040;-66
2022/03/17 04:10:46;;;;;;;18.17;9.75;;;;;;;0.64;81.41;100808.59;5073500;28;20044;-66
2022/03/17 04:13:15;;;;;;;21.53;10.33;;;;;;;0.70;81.76;100804.72;5073494;28;20102;-66
2022/03/17 04:15:44;;;;;;;22.37;10.07;;;;;;;0.65;81.78;100806.94;5073456;28;20273;-66
2022/03/17 04:18:13;;;;;;;19.33;9.43;;;;;;;0.67;81.70;100810.44;5073746;28;20094;-66
2022/03/17 04:20:44;;;;;;;20.87;9.83;;;;;;;0.65;82.30;100811.94;5073503;28;20401;-67
2022/03/17 04:23:13;;;;;;;25.63;8.48;;;;;;;0.84;82.06;100812.19;5073432;28;20368;-67
2022/03/17 04:25:42;;;;;;;17.20;10.10;;;;;;;0.92;81.47;100807.63;5073099;28;20102;-66
2022/03/17 04:28:11;;;;;;;17.93;9.50;;;;;;;0.90;81.51;100820.09;5073548;28;20068;-67
2022/03/17 04:30:40;;;;;;;20.63;9.70;;;;;;;0.90;81.62;100825.13;5073439;28;20284;-67
2022/03/17 04:33:09;;;;;;;20.17;9.83;;;;;;;1.02;81.17;100828.31;5073283;28;20131;-66
2022/03/17 04:35:37;;;;;;;21.77;10.60;;;;;;;0.83;81.03;100815.50;5074919;28;20040;-66
2022/03/17 04:38:08;;;;;;;15.05;6.93;;;;;;;0.67;81.30;100830.53;5077672;28;20068;-66
2022/03/17 04:40:37;;;;;;;17.23;8.77;;;;;;;0.57;81.19;100840.81;5077569;28;20072;-67
2022/03/17 04:43:06;;;;;;;20.90;10.13;;;;;;;0.46;81.26;100849.34;5077498;28;20048;-67
2022/03/17 04:45:35;;;;;;;21.00;10.67;;;;;;;0.41;81.37;100850.72;5077541;28;20037;-67
2022/03/17 04:48:04;;;;;;;20.80;10.00;;;;;;;0.36;81.09;100852.97;5077417;28;20060;-66
2022/03/17 04:50:32;;;;;;;19.65;8.77;;;;;;;0.24;81.03;100851.41;5077284;28;20036;-66
2022/03/17 04:55:41;;;;;;;22.52;9.98;;;;;;;0.29;81.49;100860.09;5077374;28;20048;-66
2022/03/17 04:58:11;;;;;;;21.27;10.00;;;;;;;0.35;81.44;100860.44;5076188;28;20492;-66
2022/03/17 05:00:40;;;;;;;18.58;10.73;;;;;;;0.42;81.67;100860.00;5077169;28;20051;-66
2022/03/17 05:03:09;;;;;;;21.73;11.18;;;;;;;0.53;81.62;100864.00;5076757;28;20087;-67
2022/03/17 05:05:38;;;;;;;26.70;12.02;;;;;;;0.51;81.24;100868.06;5077241;28;20529;-67
2022/03/17 05:08:08;;;;;;;18.23;9.00;;;;;;;0.57;81.60;100869.31;5077080;28;20049;-67
2022/03/17 05:10:37;;;;;;;25.40;10.80;;;;;;;0.63;81.53;100873.81;5077001;28;20052;-66
2022/03/17 05:13:09;;;;;;;25.10;11.45;;;;;;;0.75;81.60;100877.00;5076906;28;20064;-67
2022/03/17 05:15:39;;;;;;;22.20;10.70;;;;;;;0.70;81.35;100875.88;5077253;28;20082;-66
2022/03/17 05:18:09;;;;;;;21.33;9.48;;;;;;;0.73;80.92;100881.09;5076609;28;20052;-67
2022/03/17 05:20:40;;;;;;;18.15;9.45;;;;;;;0.76;80.98;100885.44;5076557;28;20044;-67
2022/03/17 05:23:12;;;;;;;19.40;9.55;;;;;;;0.91;80.99;100897.19;5076717;28;20487;-67
2022/03/17 05:25:41;;;;;;;20.15;10.77;;;;;;;0.89;80.70;100868.59;5076463;28;20044;-67
2022/03/17 05:28:12;;;;;;;19.40;9.82;;;;;;;1.08;80.47;100896.50;5076735;28;20408;-66
2022/03/17 05:30:43;;;;;;;23.60;10.25;;;;;;;1.18;80.26;100901.28;5076949;28;20070;-66
2022/03/17 05:33:13;;;;;;;22.65;10.23;;;;;;;1.23;80.25;100901.53;5076719;28;20488;-67
2022/03/17 05:35:42;;;;;;;;;;;;;;;1.12;80.48;100898.44;5076697;28;20049;-66
2022/03/17 05:38:12;;;;;;;16.77;9.18;;;;;;;1.24;80.20;100904.16;5076206;28;19927;-66
2022/03/17 05:40:42;;;;;;;23.65;10.60;;;;;;;1.30;80.07;100907.00;5076235;28;20507;-66
2022/03/17 05:43:13;;;;;;;22.05;10.30;;;;;;;1.46;79.49;100901.16;5076048;28;20049;-66
2022/03/17 05:45:43;;;;;;;19.42;9.60;;;;;;;1.32;79.86;100897.88;5076143;28;20055;-66
2022/03/17 05:48:12;;;;;;;21.17;10.57;;;;;;;1.46;79.73;100900.31;5075126;28;20083;-66
2022/03/17 05:50:45;;;;;;;18.50;10.50;;;;;;;1.49;78.90;100901.31;5076620;28;20131;-66
2022/03/17 05:53:14;;;;;;;20.50;11.07;;;;;;;1.48;79.32;100912.19;5076561;28;20496;-66
2022/03/17 05:55:43;;;;;;;19.40;9.40;;;;;;;1.67;79.01;100911.53;5075856;28;20041;-66
2022/03/17 05:58:13;;;;;;;21.88;10.85;;;;;;;1.76;79.30;100914.53;5075897;28;20048;-66
2022/03/17 06:00:42;;;;;;;22.73;11.50;;;;;;;1.92;79.36;100909.56;5076156;28;20094;-66
2022/03/17 06:03:11;;;;;;;20.60;11.30;;;;;;;2.19;78.79;100916.03;5075999;28;20040;-66
2022/03/17 06:05:40;;;;;;;22.70;12.27;;;;;;;2.40;78.90;100912.09;5075979;28;20629;-66
2022/03/17 06:08:10;;;;;;;23.98;10.93;;;;;;;2.48;78.13;100920.91;5075997;28;20286;-66
2022/03/17 06:10:40;;;;;;;24.90;11.50;;;;;;;2.57;78.05;100916.34;5075536;28;20041;-66
2022/03/17 06:13:09;;;;;;;23.58;12.95;;;;;;;2.64;77.65;100915.84;5075601;28;20360;-66
2022/03/17 06:15:39;;;;;;;28.30;14.17;;;;;;;2.77;77.55;100917.34;5075467;28;20500;-66
2022/03/17 06:18:08;;;;;;;24.23;13.23;;;;;;;2.94;77.32;100918.19;5075535;28;20523;-66
2022/03/17 06:20:39;;;;;;;27.08;13.60;;;;;;;3.02;75.98;100922.81;5075454;28;20048;-66
2022/03/17 06:23:08;;;;;;;27.00;12.32;;;;;;;3.20;76.42;100922.84;5075241;28;20048;-66
2022/03/17 06:25:38;;;;;;;25.02;11.88;;;;;;;3.36;76.01;100925.28;5075440;28;20076;-67
2022/03/17 06:28:09;;;;;;;25.67;12.90;;;;;;;3.56;75.62;100926.25;5074403;28;20036;-66
2022/03/17 06:30:39;;;;;;;23.63;11.68;;;;;;;3.90;76.00;100922.84;5075117;28;20571;-67
2022/03/17 06:33:08;;;;;;;23.58;12.23;;;;;;;4.16;75.69;100923.13;5075076;28;20067;-67
2022/03/17 06:35:37;;;;;;;25.30;12.93;;;;;;;4.42;75.29;100920.94;5075056;28;20044;-66
2022/03/17 06:38:08;;;;;;;23.52;11.35;;;;;;;4.67;74.09;100927.94;5075140;28;20040;-66
2022/03/17 06:40:37;;;;;;;19.40;11.15;;;;;;;4.71;74.04;100912.09;5075289;28;20045;-67
2022/03/17 06:43:07;;;;;;;24.38;12.07;;;;;;;5.03;74.08;100933.69;5074937;28;20055;-66
2022/03/17 06:45:36;;;;;;;28.37;13.57;;;;;;;5.17;73.11;100933.44;5075162;28;20059;-66
2022/03/17 06:48:06;;;;;;;26.40;12.73;;;;;;;5.35;72.58;100929.09;5075305;28;20270;-66
2022/03/17 06:50:35;;;;;;;21.92;12.77;;;;;;;5.48;72.29;100929.59;5074695;28;20056;-67
2022/03/17 06:53:05;;;;;;;23.83;12.13;;;;;;;5.63;71.15;100936.16;5074812;28;20059;-66
2022/03/17 06:55:34;;;;;;;23.20;12.38;;;;;;;5.47;70.97;100932.94;5074577;28;20044;-67
2022/03/17 06:58:03;;;;;;;19.27;9.65;;;;;;;5.48;70.22;100938.06;5074952;28;20123;-66
2022/03/17 07:00:32;;;;;;;24.85;12.85;;;;;;;5.52;69.07;100944.13;5074963;28;20463;-67
2022/03/17 07:03:01;;;;;;;19.83;9.97;;;;;;;5.43;68.97;100948.00;5074460;28;20044;-66
2022/03/17 07:05:32;;;;;;;23.58;13.02;;;;;;;5.24;68.71;100948.06;5075097;28;20048;-66
2022/03/17 07:08:01;;;;;;;23.08;12.23;;;;;;;5.44;68.84;100943.81;5074400;28;20056;-66
2022/03/17 07:10:34;;;;;;;26.55;11.98;;;;;;;5.68;68.90;100948.97;5074476;28;20055;-66
2022/03/17 07:13:03;;;;;;;18.73;10.10;;;;;;;5.79;68.54;100947.72;5074316;28;20045;-67
2022/03/17 07:15:32;;;;;;;23.48;12.45;;;;;;;5.95;68.44;100950.09;5074308;28;20033;-66
2022/03/17 07:18:01;;;;;;;24.42;12.65;;;;;;;6.07;67.76;100942.91;5074312;28;20059;-66
2022/03/17 07:20:31;;;;;;;23.73;12.38;;;;;;;6.06;68.04;100951.34;5074484;28;20043;-66
2022/03/17 07:23:00;;;;;;;25.38;12.95;;;;;;;6.22;67.32;100952.75;5074175;28;20131;-66
2022/03/17 07:25:29;;;;;;;21.20;12.27;;;;;;;6.44;67.58;100948.53;5073981;28;20053;-66
2022/03/17 07:28:00;;;;;;;23.23;12.40;;;;;;;6.45;67.32;100960.44;5074147;28;20514;-66
2022/03/17 07:30:29;;;;;;;23.90;12.25;;;;;;;6.69;67.33;100940.97;5074016;28;20075;-66
2022/03/17 07:32:59;;;;;;;21.02;12.02;;;;;;;7.10;66.66;100956.78;5074255;28;20055;-66
2022/03/17 07:35:29;;;;;;;28.48;12.93;;;;;;;7.45;66.00;100958.78;5073976;28;20048;-66
2022/03/17 07:37:59;;;;;;;24.27;11.60;;;;;;;7.52;65.63;100960.72;5073789;28;20074;-66
2022/03/17 07:40:28;;;;;;;22.10;12.27;;;;;;;7.68;65.75;100947.66;5074218;28;20401;-66
2022/03/17 07:42:57;;;;;;;22.77;11.60;;;;;;;7.86;65.31;100953.34;5074103;28;20040;-66
2022/03/17 07:45:26;;;;;;;23.52;12.57;;;;;;;8.34;64.30;100961.56;5074031;28;20068;-66
2022/03/17 07:48:06;;;;;;;;;;;;;;;8.25;63.18;100957.88;5072280;28;20037;-67
2022/03/17 07:50:38;;;;;;;23.85;12.40;;;;;;;8.65;64.90;100968.38;5086117;28;20296;-64
2022/03/17 07:53:08;;;;;;;22.43;12.43;;;;;;;9.01;63.24;100966.81;5064400;28;20374;-66
2022/03/17 07:55:38;;;;;;;21.88;13.20;;;;;;;9.17;62.62;100961.28;5068295;28;20369;-67
2022/03/17 07:58:08;;;;;;;22.02;12.13;;;;;;;9.06;62.56;100967.81;5073647;28;20044;-66
2022/03/17 08:00:37;;;;;;;21.38;11.95;;;;;;;9.02;62.58;100968.53;5073752;28;20051;-66
2022/03/17 08:03:06;;;;;;;22.65;12.63;;;;;;;9.33;61.48;100968.50;5066477;28;20097;-66
2022/03/17 08:05:35;;;;;;;27.30;13.85;;;;;;;9.85;61.50;100968.06;5053664;28;20087;-65
2022/03/17 08:08:05;;;;;;;21.67;11.83;;;;;;;10.12;60.44;100957.66;5072466;28;20044;-66
2022/03/17 08:10:35;;;;;;;22.52;12.05;;;;;;;10.37;58.97;100962.41;5073009;28;20281;-66
2022/03/17 08:13:06;;;;;;;22.63;12.38;;;;;;;10.24;57.93;100967.25;5073512;28;20048;-66
2022/03/17 08:15:35;;;;;;;23.08;12.50;;;;;;;9.88;58.10;100957.06;5073527;28;20094;-66
2022/03/17 08:18:04;;;;;;;22.63;12.88;;;;;;;9.61;57.98;100964.06;5061567;28;20045;-66
2022/03/17 08:20:33;;;;;;;23.02;12.07;;;;;;;9.47;57.85;100970.53;5073592;28;20039;-66
2022/03/17 08:23:02;;;;;;;23.70;13.27;;;;;;;9.59;58.64;100963.19;5073061;28;20500;-66
2022/03/17 08:25:31;;;;;;;19.73;11.95;;;;;;;9.70;58.52;100967.69;5072059;28;20051;-66
2022/03/17 08:28:03;;;;;;;21.42;12.38;;;;;;;9.85;59.05;100967.19;5073237;28;20044;-66
2022/03/17 08:30:33;;;;;;;21.45;12.20;;;;;;;9.80;58.96;100968.78;5073308;28;20075;-66
2022/03/17 08:33:01;;;;;;;22.77;13.55;;;;;;;9.99;59.31;100965.81;5073673;28;20075;-66
2022/03/17 08:35:30;;;;;;;24.30;13.50;;;;;;;10.06;58.54;100960.88;5073300;28;20102;-66
2022/03/17 08:37:59;;;;;;;19.13;10.87;;;;;;;10.12;58.67;100972.94;5073283;28;20044;-66
2022/03/17 08:40:29;;;;;;;23.88;13.63;;;;;;;10.24;58.22;100977.44;5070756;28;20037;-67
2022/03/17 08:42:58;;;;;;;23.80;13.02;;;;;;;10.24;57.16;100973.22;5061891;28;20103;-66
2022/03/17 08:50:47;;;;;;;23.80;13.27;;;;;;;10.56;57.30;100972.16;5053127;28;20049;-66
2022/03/17 08:53:18;;;;;;;24.52;13.68;;;;;;;10.74;56.22;100971.69;5053037;28;20053;-66
2022/03/17 08:55:47;;;;;;;24.27;13.23;;;;;;;11.06;55.76;100977.41;5053296;28;20409;-66
2022/03/17 08:58:16;;;;;;;23.63;13.88;;;;;;;11.05;55.38;100978.22;5053646;28;20044;-66
2022/03/17 09:00:47;;;;;;;25.65;14.02;;;;;;;10.99;55.05;100970.47;5053196;28;20037;-66
2022/03/17 09:03:19;;;;;;;22.65;13.20;;;;;;;11.02;54.93;100973.03;5052496;28;20143;-66
2022/03/17 09:05:49;;;;;;;24.77;13.57;;;;;;;11.17;55.32;100968.22;5052751;28;20051;-66
2022/03/17 09:08:18;;;;;;;24.70;13.73;;;;;;;11.31;55.26;100976.97;5052820;28;20037;-66
2022/03/17 09:10:49;;;;;;;21.77;13.23;;;;;;;11.24;55.67;100977.72;5052823;28;20052;-66
2022/03/17 09:13:17;;;;;;;23.92;14.23;;;;;;;11.16;54.89;100976.69;5052826;28;20052;-66
2022/03/17 09:15:49;;;;;;;15.77;9.75;;;;;;;11.11;55.79;100975.78;5052497;28;20063;-66
2022/03/17 09:18:19;;;;;;;24.80;13.00;;;;;;;11.22;54.89;100964.03;5053005;28;20127;-66
2022/03/17 09:20:48;;;;;;;;;;;;;;;11.36;54.42;100968.56;5053175;28;20041;-66
2022/03/17 09:23:17;;;;;;;20.92;12.18;;;;;;;11.65;54.20;100974.16;5055132;28;19924;-66
2022/03/17 09:25:47;;;;;;;16.65;10.63;;;;;;;11.77;54.05;100970.94;5056474;28;20401;-66
2022/03/17 09:28:15;;;;;;;22.25;13.43;;;;;;;11.37;55.31;100977.09;5056645;28;20507;-66
2022/03/17 09:30:45;;;;;;;25.65;13.35;;;;;;;11.40;55.44;100983.09;5056626;28;20037;-66
2022/03/17 09:33:15;;;;;;;22.90;13.32;;;;;;;11.35;55.43;100983.84;5072098;28;20052;-66
2022/03/17 09:35:44;;;;;;;21.45;13.55;;;;;;;11.48;54.97;100980.69;5076484;28;20484;-66
2022/03/17 09:38:13;;;;;;;21.42;13.63;;;;;;;11.39;55.49;100991.63;5076253;28;20400;-66
2022/03/17 09:40:42;;;;;;;21.60;12.77;;;;;;;11.52;56.11;100982.44;5076145;28;20045;-66
2022/03/17 09:45:51;;;;;;;19.25;11.38;;;;;;;11.70;54.74;100987.03;5075874;28;20139;-65
2022/03/17 09:48:24;;;;;;;19.15;10.88;;;;;;;11.66;54.96;100980.97;5076618;28;20408;-66
2022/03/17 09:50:56;;;;;;;19.40;11.18;;;;;;;11.94;54.10;100980.59;5076010;28;20055;-66
2022/03/17 09:53:29;;;;;;;19.38;11.45;;;;;;;11.95;53.43;100976.31;5075882;28;20036;-66
2022/03/17 09:55:59;;;;;;;18.63;11.80;;;;;;;11.82;54.28;100985.53;5075873;28;20044;-66
2022/03/17 09:58:28;;;;;;;16.40;8.90;;;;;;;12.01;54.63;100978.97;5075866;28;20040;-66
2022/03/17 10:00:59;;;;;;;20.52;11.90;;;;;;;12.33;54.62;100990.53;5076102;28;20484;-66
2022/03/17 10:03:33;;;;;;;21.30;12.57;;;;;;;12.32;53.98;100986.25;5075719;28;20135;-66
2022/03/17 10:06:06;;;;;;;17.60;11.57;;;;;;;12.68;54.16;100988.38;5075998;28;20549;-66
2022/03/17 10:08:38;;;;;;;21.15;11.57;;;;;;;12.62;52.73;100991.72;5075650;28;20063;-67
2022/03/17 10:11:07;;;;;;;19.65;11.98;;;;;;;12.68;52.89;100985.84;5075906;28;20488;-66
2022/03/17 10:13:44;;;;;;;15.60;9.60;;;;;;;12.84;52.85;100979.19;5074612;28;20139;-66
2022/03/17 10:16:17;;;;;;;20.33;11.55;;;;;;;12.99;52.59;100993.00;5075932;28;20266;-66
2022/03/17 10:18:56;;;;;;;16.75;10.30;;;;;;;12.85;49.65;100989.44;5076171;28;20044;-66
2022/03/17 10:21:26;;;;;;;17.90;11.07;;;;;;;12.70;50.77;100986.69;5068584;28;20041;-67
2022/03/17 10:23:57;;;;;;;23.65;11.55;;;;;;;12.76;50.70;100986.78;5075310;28;20098;-66
2022/03/17 10:26:38;;;;;;;19.40;11.55;;;;;;;12.94;50.79;100989.53;5073861;28;20045;-66
2022/03/17 10:29:12;;;;;;;16.17;10.55;;;;;;;12.95;49.98;100986.16;5073437;28;20628;-67
2022/03/17 10:31:56;;;;;;;21.35;11.35;;;;;;;12.84;50.56;100981.75;5063936;28;20087;-66
2022/03/17 10:34:29;;;;;;;19.17;10.73;;;;;;;13.03;50.76;100983.66;5054854;28;20132;-66
2022/03/17 10:37:10;;;;;;;17.60;10.80;;;;;;;13.11;50.45;100993.16;5055256;28;20052;-66
2022/03/17 10:39:44;;;;;;;20.35;10.98;;;;;;;12.90;49.19;100982.66;5065601;28;20123;-66
2022/03/17 10:42:16;;;;;;;17.05;10.85;;;;;;;12.93;50.57;100982.72;5074918;28;20037;-66
2022/03/17 10:44:50;;;;;;;17.27;10.60;;;;;;;12.90;49.23;100982.66;5075148;28;20514;-66
2022/03/17 10:47:26;;;;;;;18.58;11.02;;;;;;;12.92;49.51;100990.38;5075233;28;20131;-66
2022/03/17 10:50:07;;;;;;;21.23;11.38;;;;;;;13.00;49.00;100979.38;5068276;28;20043;-66
2022/03/17 10:52:51;;;;;;;20.50;11.32;;;;;;;13.30;48.97;100981.38;5074872;28;20089;-66
2022/03/17 10:55:22;;;;;;;21.60;11.77;;;;;;;13.30;49.18;100982.25;5075043;28;20492;-66
2022/03/17 10:57:55;;;;;;;21.83;12.05;;;;;;;13.53;49.50;100981.59;5075054;28;20127;-66
2022/03/17 11:00:26;;;;;;;20.30;11.07;;;;;;;13.33;48.55;100984.84;5074964;28;20075;-66
2022/03/17 11:02:57;;;;;;;17.27;10.68;;;;;;;13.37;48.83;100981.47;5074553;28;20047;-66
2022/03/17 11:05:28;;;;;;;16.05;9.48;;;;;;;13.49;47.39;100984.97;5074969;28;20135;-66
2022/03/17 11:07:58;;;;;;;18.00;11.13;;;;;;;13.46;46.92;100980.66;5074437;28;20051;-66
2022/03/17 11:10:27;;;;;;;;;;;;;;;13.39;47.84;100982.31;5074735;28;20048;-66
2022/03/17 11:12:56;;;;;;;19.40;10.70;;;;;;;13.56;47.83;100986.72;5074552;28;19982;-66
2022/03/17 11:15:27;;;;;;;18.58;10.75;;;;;;;13.64;48.49;100985.09;5074279;28;20500;-66
2022/03/17 11:18:03;;;;;;;19.67;11.43;;;;;;;13.56;48.27;100991.84;5074674;28;20443;-66
2022/03/17 11:20:35;;;;;;;19.30;11.18;;;;;;;13.57;48.46;100988.47;5074745;28;20452;-66
2022/03/17 11:23:19;;;;;;;19.83;11.85;;;;;;;13.77;48.71;100986.91;5074307;28;20488;-66
2022/03/17 11:25:55;;;;;;;18.50;11.32;;;;;;;14.03;48.21;100983.69;5073995;28;20049;-66
2022/03/17 11:28:37;;;;;;;18.65;10.63;;;;;;;13.94;47.08;100987.91;5074613;28;20381;-67
2022/03/17 11:31:08;;;;;;;18.15;10.70;;;;;;;14.00;46.55;100985.34;5074426;28;20079;-66
2022/03/17 11:33:43;;;;;;;18.38;11.05;;;;;;;13.98;46.40;100989.63;5074214;28;20101;-66
2022/03/17 11:36:21;;;;;;;20.23;10.38;;;;;;;14.04;45.98;100987.09;5074028;28;20063;-66
2022/03/17 11:39:00;;;;;;;18.85;10.32;;;;;;;14.13;45.44;100991.44;5073985;28;20045;-67
2022/03/17 11:41:31;;;;;;;17.88;10.52;;;;;;;14.37;46.33;100977.03;5069459;28;20083;-66
2022/03/17 11:44:05;;;;;;;18.58;10.00;;;;;;;14.39;45.46;100983.06;5074283;28;20050;-67
2022/03/17 11:46:42;;;;;;;18.88;10.45;;;;;;;13.98;45.70;100976.78;5073198;28;20037;-66